sensor_id;sensor_type;location;lat;lon;timestamp;temperature;humidity
79439;DHT22;68889;48.232;10.110;2023-04-25T00:01:04;7.40;79.90
79439;DHT22;68889;48.232;10.110;2023-04-25T00:03:31;7.40;79.40
79439;DHT22;68889;48.232;10.110;2023-04-25T00:05:57;7.40;79.10
79439;DHT22;68889;48.232;10.110;2023-04-25T00:08:23;7.40;78.70
79439;DHT22;68889;48.232;10.110;2023-04-25T00:10:48;7.40;78.90
79439;DHT22;68889;48.232;10.110;2023-04-25T00:13:14;7.40;79.00
79439;DHT22;68889;48.232;10.110;2023-04-25T00:15:43;7.40;79.60
79439;DHT22;68889;48.232;10.110;2023-04-25T00:18:09;7.40;79.00
79439;DHT22;68889;48.232;10.110;2023-04-25T00:20:36;7.40;79.10
79439;DHT22;68889;48.232;10.110;2023-04-25T00:23:02;7.40;78.60
79439;DHT22;68889;48.232;10.110;2023-04-25T00:25:27;7.40;78.40
79439;DHT22;68889;48.232;10.110;2023-04-25T00:27:53;7.40;78.60
79439;DHT22;68889;48.232;10.110;2023-04-25T00:30:18;7.40;78.90
79439;DHT22;68889;48.232;10.110;2023-04-25T00:32:44;7.40;78.70
79439;DHT22;68889;48.232;10.110;2023-04-25T00:35:09;7.40;79.00
79439;DHT22;68889;48.232;10.110;2023-04-25T00:37:35;7.40;78.80
79439;DHT22;68889;48.232;10.110;2023-04-25T00:40:01;7.40;78.70
79439;DHT22;68889;48.232;10.110;2023-04-25T00:42:27;7.40;79.60
79439;DHT22;68889;48.232;10.110;2023-04-25T00:44:53;7.40;79.10
79439;DHT22;68889;48.232;10.110;2023-04-25T00:47:18;7.40;79.00
79439;DHT22;68889;48.232;10.110;2023-04-25T00:49:44;7.40;79.00
79439;DHT22;68889;48.232;10.110;2023-04-25T00:52:10;7.50;79.20
79439;DHT22;68889;48.232;10.110;2023-04-25T00:54:36;7.40;78.80
79439;DHT22;68889;48.232;10.110;2023-04-25T00:57:02;7.40;79.00
79439;DHT22;68889;48.232;10.110;2023-04-25T00:59:28;7.40;79.60
79439;DHT22;68889;48.232;10.110;2023-04-25T01:01:55;7.40;79.10
79439;DHT22;68889;48.232;10.110;2023-04-25T01:04:21;7.40;79.00
79439;DHT22;68889;48.232;10.110;2023-04-25T01:06:47;7.40;79.40
79439;DHT22;68889;48.232;10.110;2023-04-25T01:09:13;7.40;79.70
79439;DHT22;68889;48.232;10.110;2023-04-25T01:11:40;7.30;79.80
79439;DHT22;68889;48.232;10.110;2023-04-25T01:14:05;7.40;79.60
79439;DHT22;68889;48.232;10.110;2023-04-25T01:16:31;7.40;80.00
79439;DHT22;68889;48.232;10.110;2023-04-25T01:18:57;7.40;79.20
79439;DHT22;68889;48.232;10.110;2023-04-25T01:21:23;7.40;79.90
79439;DHT22;68889;48.232;10.110;2023-04-25T01:23:51;7.40;79.40
79439;DHT22;68889;48.232;10.110;2023-04-25T01:26:18;7.40;79.40
79439;DHT22;68889;48.232;10.110;2023-04-25T01:28:44;7.50;79.10
79439;DHT22;68889;48.232;10.110;2023-04-25T01:31:10;7.50;79.40
79439;DHT22;68889;48.232;10.110;2023-04-25T01:33:36;7.50;79.60
79439;DHT22;68889;48.232;10.110;2023-04-25T01:36:02;7.50;80.10
79439;DHT22;68889;48.232;10.110;2023-04-25T01:38:28;7.50;80.90
79439;DHT22;68889;48.232;10.110;2023-04-25T01:40:53;7.40;81.40
79439;DHT22;68889;48.232;10.110;2023-04-25T01:43:20;7.20;81.70
79439;DHT22;68889;48.232;10.110;2023-04-25T01:45:45;7.20;82.60
79439;DHT22;68889;48.232;10.110;2023-04-25T01:48:13;7.10;83.80
79439;DHT22;68889;48.232;10.110;2023-04-25T01:50:40;7.10;84.10
79439;DHT22;68889;48.232;10.110;2023-04-25T01:53:06;7.00;84.40
79439;DHT22;68889;48.232;10.110;2023-04-25T01:55:31;7.00;85.20
79439;DHT22;68889;48.232;10.110;2023-04-25T01:57:57;6.90;85.20
79439;DHT22;68889;48.232;10.110;2023-04-25T02:00:24;6.90;85.00
79439;DHT22;68889;48.232;10.110;2023-04-25T02:02:49;6.80;86.30
79439;DHT22;68889;48.232;10.110;2023-04-25T02:05:16;6.70;86.00
79439;DHT22;68889;48.232;10.110;2023-04-25T02:07:42;6.80;85.90
79439;DHT22;68889;48.232;10.110;2023-04-25T02:10:08;6.70;86.00
79439;DHT22;68889;48.232;10.110;2023-04-25T02:12:35;6.70;86.40
79439;DHT22;68889;48.232;10.110;2023-04-25T02:15:01;6.70;86.20
79439;DHT22;68889;48.232;10.110;2023-04-25T02:17:26;6.70;86.30
79439;DHT22;68889;48.232;10.110;2023-04-25T02:19:52;6.60;86.90
79439;DHT22;68889;48.232;10.110;2023-04-25T02:22:17;6.60;87.00
79439;DHT22;68889;48.232;10.110;2023-04-25T02:24:43;6.60;87.00
79439;DHT22;68889;48.232;10.110;2023-04-25T02:27:08;6.60;87.40
79439;DHT22;68889;48.232;10.110;2023-04-25T02:29:34;6.60;85.70
79439;DHT22;68889;48.232;10.110;2023-04-25T02:32:00;6.60;86.00
79439;DHT22;68889;48.232;10.110;2023-04-25T02:34:25;6.60;85.50
79439;DHT22;68889;48.232;10.110;2023-04-25T02:36:51;6.50;85.40
79439;DHT22;68889;48.232;10.110;2023-04-25T02:39:17;6.40;85.90
79439;DHT22;68889;48.232;10.110;2023-04-25T02:41:42;6.40;86.00
79439;DHT22;68889;48.232;10.110;2023-04-25T02:44:08;6.30;86.20
79439;DHT22;68889;48.232;10.110;2023-04-25T02:46:33;6.30;85.80
79439;DHT22;68889;48.232;10.110;2023-04-25T02:48:59;6.40;85.80
79439;DHT22;68889;48.232;10.110;2023-04-25T02:51:25;6.40;85.50
79439;DHT22;68889;48.232;10.110;2023-04-25T02:53:51;6.40;85.20
79439;DHT22;68889;48.232;10.110;2023-04-25T02:56:17;6.40;85.30
79439;DHT22;68889;48.232;10.110;2023-04-25T02:58:42;6.40;85.10
79439;DHT22;68889;48.232;10.110;2023-04-25T03:01:08;6.40;84.70
79439;DHT22;68889;48.232;10.110;2023-04-25T03:03:33;6.40;84.90
79439;DHT22;68889;48.232;10.110;2023-04-25T03:05:59;6.40;84.60
79439;DHT22;68889;48.232;10.110;2023-04-25T03:08:24;6.50;84.60
79439;DHT22;68889;48.232;10.110;2023-04-25T03:10:52;6.40;84.70
79439;DHT22;68889;48.232;10.110;2023-04-25T03:13:20;6.40;84.30
79439;DHT22;68889;48.232;10.110;2023-04-25T03:15:46;6.40;84.80
79439;DHT22;68889;48.232;10.110;2023-04-25T03:18:11;6.40;85.10
79439;DHT22;68889;48.232;10.110;2023-04-25T03:20:37;6.40;84.60
79439;DHT22;68889;48.232;10.110;2023-04-25T03:23:04;6.40;84.80
79439;DHT22;68889;48.232;10.110;2023-04-25T03:25:30;6.40;85.10
79439;DHT22;68889;48.232;10.110;2023-04-25T03:27:55;6.50;84.40
79439;DHT22;68889;48.232;10.110;2023-04-25T03:30:21;6.40;85.40
79439;DHT22;68889;48.232;10.110;2023-04-25T03:32:46;6.40;85.50
79439;DHT22;68889;48.232;10.110;2023-04-25T03:35:12;6.40;85.20
79439;DHT22;68889;48.232;10.110;2023-04-25T03:37:37;6.50;84.90
79439;DHT22;68889;48.232;10.110;2023-04-25T03:40:03;6.50;84.80
79439;DHT22;68889;48.232;10.110;2023-04-25T03:42:29;6.50;85.30
79439;DHT22;68889;48.232;10.110;2023-04-25T03:44:55;6.50;85.20
79439;DHT22;68889;48.232;10.110;2023-04-25T03:47:20;6.50;86.00
79439;DHT22;68889;48.232;10.110;2023-04-25T03:49:46;6.40;86.80
79439;DHT22;68889;48.232;10.110;2023-04-25T03:52:11;6.40;86.70
79439;DHT22;68889;48.232;10.110;2023-04-25T03:54:37;6.40;86.10
79439;DHT22;68889;48.232;10.110;2023-04-25T03:57:02;6.40;85.70
79439;DHT22;68889;48.232;10.110;2023-04-25T03:59:28;6.40;85.70
79439;DHT22;68889;48.232;10.110;2023-04-25T04:01:54;6.40;86.30
79439;DHT22;68889;48.232;10.110;2023-04-25T04:04:20;6.40;86.60
79439;DHT22;68889;48.232;10.110;2023-04-25T04:06:45;6.40;87.90
79439;DHT22;68889;48.232;10.110;2023-04-25T04:09:11;6.30;88.80
79439;DHT22;68889;48.232;10.110;2023-04-25T04:11:38;6.30;88.50
79439;DHT22;68889;48.232;10.110;2023-04-25T04:14:07;6.30;88.20
79439;DHT22;68889;48.232;10.110;2023-04-25T04:16:33;6.20;88.20
79439;DHT22;68889;48.232;10.110;2023-04-25T04:18:58;6.20;89.10
79439;DHT22;68889;48.232;10.110;2023-04-25T04:21:24;6.20;88.60
79439;DHT22;68889;48.232;10.110;2023-04-25T04:23:50;6.20;88.70
79439;DHT22;68889;48.232;10.110;2023-04-25T04:26:15;6.20;88.60
79439;DHT22;68889;48.232;10.110;2023-04-25T04:28:43;6.20;88.80
79439;DHT22;68889;48.232;10.110;2023-04-25T04:31:10;6.20;89.20
79439;DHT22;68889;48.232;10.110;2023-04-25T04:33:35;6.20;88.90
79439;DHT22;68889;48.232;10.110;2023-04-25T04:36:02;6.20;89.10
79439;DHT22;68889;48.232;10.110;2023-04-25T04:38:29;6.20;88.90
79439;DHT22;68889;48.232;10.110;2023-04-25T04:40:55;6.20;89.30
79439;DHT22;68889;48.232;10.110;2023-04-25T04:43:21;6.20;89.10
79439;DHT22;68889;48.232;10.110;2023-04-25T04:45:48;6.20;89.00
79439;DHT22;68889;48.232;10.110;2023-04-25T04:48:15;6.20;88.50
79439;DHT22;68889;48.232;10.110;2023-04-25T04:50:43;6.20;88.60
79439;DHT22;68889;48.232;10.110;2023-04-25T04:53:10;6.20;87.70
79439;DHT22;68889;48.232;10.110;2023-04-25T04:55:35;6.20;87.90
79439;DHT22;68889;48.232;10.110;2023-04-25T04:58:01;6.20;87.90
79439;DHT22;68889;48.232;10.110;2023-04-25T05:00:27;6.20;87.80
79439;DHT22;68889;48.232;10.110;2023-04-25T05:02:53;6.20;88.00
79439;DHT22;68889;48.232;10.110;2023-04-25T05:05:18;6.20;88.00
79439;DHT22;68889;48.232;10.110;2023-04-25T05:07:44;6.20;87.60
79439;DHT22;68889;48.232;10.110;2023-04-25T05:10:10;6.20;87.90
79439;DHT22;68889;48.232;10.110;2023-04-25T05:12:35;6.20;87.50
79439;DHT22;68889;48.232;10.110;2023-04-25T05:15:01;6.30;87.20
79439;DHT22;68889;48.232;10.110;2023-04-25T05:17:26;6.30;86.40
79439;DHT22;68889;48.232;10.110;2023-04-25T05:19:52;6.30;86.80
79439;DHT22;68889;48.232;10.110;2023-04-25T05:22:18;6.30;87.00
79439;DHT22;68889;48.232;10.110;2023-04-25T05:24:43;6.30;87.00
79439;DHT22;68889;48.232;10.110;2023-04-25T05:27:09;6.30;87.50
79439;DHT22;68889;48.232;10.110;2023-04-25T05:29:35;6.40;86.40
79439;DHT22;68889;48.232;10.110;2023-04-25T05:32:00;6.30;86.40
79439;DHT22;68889;48.232;10.110;2023-04-25T05:34:26;6.30;86.60
79439;DHT22;68889;48.232;10.110;2023-04-25T05:36:51;6.30;86.00
79439;DHT22;68889;48.232;10.110;2023-04-25T05:39:17;6.40;85.20
79439;DHT22;68889;48.232;10.110;2023-04-25T05:41:43;6.40;85.50
79439;DHT22;68889;48.232;10.110;2023-04-25T05:44:08;6.50;85.50
79439;DHT22;68889;48.232;10.110;2023-04-25T05:46:34;6.50;84.70
79439;DHT22;68889;48.232;10.110;2023-04-25T05:49:00;6.60;85.00
79439;DHT22;68889;48.232;10.110;2023-04-25T05:51:25;6.70;84.70
79439;DHT22;68889;48.232;10.110;2023-04-25T05:53:51;6.80;85.00
79439;DHT22;68889;48.232;10.110;2023-04-25T05:56:17;7.00;83.90
79439;DHT22;68889;48.232;10.110;2023-04-25T05:58:42;7.10;84.00
79439;DHT22;68889;48.232;10.110;2023-04-25T06:01:08;7.10;83.50
79439;DHT22;68889;48.232;10.110;2023-04-25T06:03:34;7.20;83.50
79439;DHT22;68889;48.232;10.110;2023-04-25T06:05:59;7.30;83.40
79439;DHT22;68889;48.232;10.110;2023-04-25T06:08:25;7.50;83.10
79439;DHT22;68889;48.232;10.110;2023-04-25T06:10:51;7.60;81.40
79439;DHT22;68889;48.232;10.110;2023-04-25T06:13:16;7.70;81.20
79439;DHT22;68889;48.232;10.110;2023-04-25T06:15:42;7.80;81.20
79439;DHT22;68889;48.232;10.110;2023-04-25T06:18:08;7.90;80.50
79439;DHT22;68889;48.232;10.110;2023-04-25T06:20:33;8.00;81.40
79439;DHT22;68889;48.232;10.110;2023-04-25T06:22:59;8.10;80.00
79439;DHT22;68889;48.232;10.110;2023-04-25T06:25:24;8.20;79.90
79439;DHT22;68889;48.232;10.110;2023-04-25T06:27:50;8.30;78.60
79439;DHT22;68889;48.232;10.110;2023-04-25T06:30:15;8.40;79.90
79439;DHT22;68889;48.232;10.110;2023-04-25T06:32:43;8.40;78.90
79439;DHT22;68889;48.232;10.110;2023-04-25T06:35:09;8.40;79.80
79439;DHT22;68889;48.232;10.110;2023-04-25T06:37:35;8.50;79.20
79439;DHT22;68889;48.232;10.110;2023-04-25T06:40:01;8.70;78.60
79439;DHT22;68889;48.232;10.110;2023-04-25T06:42:26;8.70;78.30
79439;DHT22;68889;48.232;10.110;2023-04-25T06:44:53;8.90;78.30
79439;DHT22;68889;48.232;10.110;2023-04-25T06:47:18;9.10;78.50
79439;DHT22;68889;48.232;10.110;2023-04-25T06:49:43;9.30;76.20
79439;DHT22;68889;48.232;10.110;2023-04-25T06:52:09;9.40;77.80
79439;DHT22;68889;48.232;10.110;2023-04-25T06:54:36;9.40;74.00
79439;DHT22;68889;48.232;10.110;2023-04-25T06:57:01;9.30;75.60
79439;DHT22;68889;48.232;10.110;2023-04-25T06:59:27;9.30;76.70
79439;DHT22;68889;48.232;10.110;2023-04-25T07:01:52;9.40;73.70
79439;DHT22;68889;48.232;10.110;2023-04-25T07:04:18;9.60;76.70
79439;DHT22;68889;48.232;10.110;2023-04-25T07:06:44;9.70;72.50
79439;DHT22;68889;48.232;10.110;2023-04-25T07:09:10;9.80;74.30
79439;DHT22;68889;48.232;10.110;2023-04-25T07:11:36;10.10;74.80
79439;DHT22;68889;48.232;10.110;2023-04-25T07:14:02;10.30;73.00
79439;DHT22;68889;48.232;10.110;2023-04-25T07:16:27;10.50;69.90
79439;DHT22;68889;48.232;10.110;2023-04-25T07:18:53;10.50;71.10
79439;DHT22;68889;48.232;10.110;2023-04-25T07:21:19;10.40;70.00
79439;DHT22;68889;48.232;10.110;2023-04-25T07:23:44;10.30;70.40
79439;DHT22;68889;48.232;10.110;2023-04-25T07:26:10;10.30;70.10
79439;DHT22;68889;48.232;10.110;2023-04-25T07:28:35;10.60;68.90
79439;DHT22;68889;48.232;10.110;2023-04-25T07:31:01;10.80;70.60
79439;DHT22;68889;48.232;10.110;2023-04-25T07:33:27;11.10;67.40
79439;DHT22;68889;48.232;10.110;2023-04-25T07:35:53;11.50;70.00
79439;DHT22;68889;48.232;10.110;2023-04-25T07:38:18;11.60;68.00
79439;DHT22;68889;48.232;10.110;2023-04-25T07:40:44;11.70;66.90
79439;DHT22;68889;48.232;10.110;2023-04-25T07:43:10;11.40;65.60
79439;DHT22;68889;48.232;10.110;2023-04-25T07:45:39;11.30;66.80
79439;DHT22;68889;48.232;10.110;2023-04-25T07:48:05;11.20;67.60
79439;DHT22;68889;48.232;10.110;2023-04-25T07:50:31;11.20;66.80
79439;DHT22;68889;48.232;10.110;2023-04-25T07:52:56;11.10;68.10
79439;DHT22;68889;48.232;10.110;2023-04-25T07:55:22;11.10;69.00
79439;DHT22;68889;48.232;10.110;2023-04-25T07:57:47;11.20;69.00
79439;DHT22;68889;48.232;10.110;2023-04-25T08:00:13;11.10;66.80
79439;DHT22;68889;48.232;10.110;2023-04-25T08:02:40;11.10;67.90
79439;DHT22;68889;48.232;10.110;2023-04-25T08:05:06;11.20;68.70
79439;DHT22;68889;48.232;10.110;2023-04-25T08:07:33;11.30;65.90
79439;DHT22;68889;48.232;10.110;2023-04-25T08:09:59;11.40;69.80
79439;DHT22;68889;48.232;10.110;2023-04-25T08:12:24;11.50;68.20
79439;DHT22;68889;48.232;10.110;2023-04-25T08:14:50;11.70;68.30
79439;DHT22;68889;48.232;10.110;2023-04-25T08:17:16;11.80;64.20
79439;DHT22;68889;48.232;10.110;2023-04-25T08:19:41;11.80;66.60
79439;DHT22;68889;48.232;10.110;2023-04-25T08:22:07;11.90;65.90
79439;DHT22;68889;48.232;10.110;2023-04-25T08:24:32;11.90;64.80
79439;DHT22;68889;48.232;10.110;2023-04-25T08:26:58;11.80;67.80
79439;DHT22;68889;48.232;10.110;2023-04-25T08:29:24;11.80;63.60
79439;DHT22;68889;48.232;10.110;2023-04-25T08:31:51;11.60;65.20
79439;DHT22;68889;48.232;10.110;2023-04-25T08:34:18;11.60;65.70
79439;DHT22;68889;48.232;10.110;2023-04-25T08:36:45;11.50;66.70
79439;DHT22;68889;48.232;10.110;2023-04-25T08:39:10;11.40;66.40
79439;DHT22;68889;48.232;10.110;2023-04-25T08:41:40;11.30;67.40
79439;DHT22;68889;48.232;10.110;2023-04-25T08:44:07;11.20;68.20
79439;DHT22;68889;48.232;10.110;2023-04-25T08:46:35;11.10;68.30
79439;DHT22;68889;48.232;10.110;2023-04-25T08:49:02;11.20;67.70
79439;DHT22;68889;48.232;10.110;2023-04-25T08:51:31;11.20;68.10
79439;DHT22;68889;48.232;10.110;2023-04-25T08:54:06;11.20;65.60
79439;DHT22;68889;48.232;10.110;2023-04-25T08:56:33;11.00;67.10
79439;DHT22;68889;48.232;10.110;2023-04-25T08:59:01;11.10;69.40
79439;DHT22;68889;48.232;10.110;2023-04-25T09:01:27;11.30;67.50
79439;DHT22;68889;48.232;10.110;2023-04-25T09:03:53;11.40;71.70
79439;DHT22;68889;48.232;10.110;2023-04-25T09:06:19;11.50;68.40
79439;DHT22;68889;48.232;10.110;2023-04-25T09:08:45;11.60;64.60
79439;DHT22;68889;48.232;10.110;2023-04-25T09:11:12;11.60;64.80
79439;DHT22;68889;48.232;10.110;2023-04-25T09:13:38;11.70;65.40
79439;DHT22;68889;48.232;10.110;2023-04-25T09:16:04;11.60;64.80
79439;DHT22;68889;48.232;10.110;2023-04-25T09:18:34;11.50;62.80
79439;DHT22;68889;48.232;10.110;2023-04-25T09:21:08;11.40;66.20
79439;DHT22;68889;48.232;10.110;2023-04-25T09:23:47;11.40;63.40
79439;DHT22;68889;48.232;10.110;2023-04-25T09:26:17;11.50;64.70
79439;DHT22;68889;48.232;10.110;2023-04-25T09:28:43;11.50;67.50
79439;DHT22;68889;48.232;10.110;2023-04-25T09:31:12;11.70;63.40
79439;DHT22;68889;48.232;10.110;2023-04-25T09:33:37;11.60;62.80
79439;DHT22;68889;48.232;10.110;2023-04-25T09:36:05;11.70;65.90
79439;DHT22;68889;48.232;10.110;2023-04-25T09:38:39;11.80;64.80
79439;DHT22;68889;48.232;10.110;2023-04-25T09:41:06;11.90;64.10
79439;DHT22;68889;48.232;10.110;2023-04-25T09:43:32;11.80;66.10
79439;DHT22;68889;48.232;10.110;2023-04-25T09:45:58;11.80;62.60
79439;DHT22;68889;48.232;10.110;2023-04-25T09:48:26;11.80;63.20
79439;DHT22;68889;48.232;10.110;2023-04-25T09:51:11;11.70;63.70
79439;DHT22;68889;48.232;10.110;2023-04-25T09:53:43;11.60;61.40
79439;DHT22;68889;48.232;10.110;2023-04-25T09:56:11;11.60;62.80
79439;DHT22;68889;48.232;10.110;2023-04-25T09:58:38;11.10;69.20
79439;DHT22;68889;48.232;10.110;2023-04-25T10:01:06;10.40;73.00
79439;DHT22;68889;48.232;10.110;2023-04-25T10:03:34;9.90;76.50
79439;DHT22;68889;48.232;10.110;2023-04-25T10:06:02;9.60;75.00
79439;DHT22;68889;48.232;10.110;2023-04-25T10:08:35;9.30;78.20
79439;DHT22;68889;48.232;10.110;2023-04-25T10:11:05;9.10;80.80
79439;DHT22;68889;48.232;10.110;2023-04-25T10:13:33;8.90;81.00
79439;DHT22;68889;48.232;10.110;2023-04-25T10:15:59;8.60;82.10
79439;DHT22;68889;48.232;10.110;2023-04-25T10:18:26;8.50;83.50
79439;DHT22;68889;48.232;10.110;2023-04-25T10:20:57;8.30;83.70
79439;DHT22;68889;48.232;10.110;2023-04-25T10:23:24;8.30;84.40
79439;DHT22;68889;48.232;10.110;2023-04-25T10:25:53;8.30;85.10
79439;DHT22;68889;48.232;10.110;2023-04-25T10:28:21;8.20;85.30
79439;DHT22;68889;48.232;10.110;2023-04-25T10:31:07;8.30;86.10
79439;DHT22;68889;48.232;10.110;2023-04-25T10:33:38;8.20;84.40
79439;DHT22;68889;48.232;10.110;2023-04-25T10:36:20;8.30;85.10
79439;DHT22;68889;48.232;10.110;2023-04-25T10:38:47;8.20;85.50
79439;DHT22;68889;48.232;10.110;2023-04-25T10:41:13;8.10;82.60
79439;DHT22;68889;48.232;10.110;2023-04-25T10:43:42;7.90;83.30
79439;DHT22;68889;48.232;10.110;2023-04-25T10:46:28;7.60;84.70
79439;DHT22;68889;48.232;10.110;2023-04-25T10:48:58;7.60;84.00
79439;DHT22;68889;48.232;10.110;2023-04-25T10:51:26;7.60;83.90
79439;DHT22;68889;48.232;10.110;2023-04-25T10:59:06;7.80;86.20
79439;DHT22;68889;48.232;10.110;2023-04-25T11:01:37;7.70;84.90
79439;DHT22;68889;48.232;10.110;2023-04-25T11:04:03;7.70;85.00
79439;DHT22;68889;48.232;10.110;2023-04-25T11:09:38;7.60;86.20
79439;DHT22;68889;48.232;10.110;2023-04-25T11:12:07;7.60;85.90
79439;DHT22;68889;48.232;10.110;2023-04-25T11:14:33;7.70;85.60
79439;DHT22;68889;48.232;10.110;2023-04-25T11:17:00;7.80;87.40
79439;DHT22;68889;48.232;10.110;2023-04-25T11:19:28;7.90;85.70
79439;DHT22;68889;48.232;10.110;2023-04-25T11:21:58;7.90;86.50
79439;DHT22;68889;48.232;10.110;2023-04-25T11:24:35;8.10;84.60
79439;DHT22;68889;48.232;10.110;2023-04-25T11:27:04;8.10;85.20
79439;DHT22;68889;48.232;10.110;2023-04-25T11:29:32;8.20;85.00
79439;DHT22;68889;48.232;10.110;2023-04-25T11:31:58;8.20;84.30
79439;DHT22;68889;48.232;10.110;2023-04-25T11:34:25;8.40;84.60
79439;DHT22;68889;48.232;10.110;2023-04-25T11:36:51;8.40;84.60
79439;DHT22;68889;48.232;10.110;2023-04-25T11:39:18;8.30;83.40
79439;DHT22;68889;48.232;10.110;2023-04-25T11:41:44;8.40;86.00
79439;DHT22;68889;48.232;10.110;2023-04-25T11:44:10;8.30;84.20
79439;DHT22;68889;48.232;10.110;2023-04-25T11:46:36;8.30;82.60
79439;DHT22;68889;48.232;10.110;2023-04-25T11:49:02;8.30;85.10
79439;DHT22;68889;48.232;10.110;2023-04-25T11:51:29;8.30;84.50
79439;DHT22;68889;48.232;10.110;2023-04-25T11:53:56;8.20;85.40
79439;DHT22;68889;48.232;10.110;2023-04-25T11:56:22;8.40;84.80
79439;DHT22;68889;48.232;10.110;2023-04-25T11:58:57;8.60;83.10
79439;DHT22;68889;48.232;10.110;2023-04-25T12:01:37;8.60;81.00
79439;DHT22;68889;48.232;10.110;2023-04-25T12:04:18;8.70;82.30
79439;DHT22;68889;48.232;10.110;2023-04-25T12:06:45;8.70;82.70
79439;DHT22;68889;48.232;10.110;2023-04-25T12:09:16;8.60;83.90
79439;DHT22;68889;48.232;10.110;2023-04-25T12:11:48;8.60;82.50
79439;DHT22;68889;48.232;10.110;2023-04-25T12:14:22;8.50;84.50
79439;DHT22;68889;48.232;10.110;2023-04-25T12:16:52;8.60;84.80
79439;DHT22;68889;48.232;10.110;2023-04-25T12:19:19;8.50;82.90
79439;DHT22;68889;48.232;10.110;2023-04-25T12:21:46;8.60;83.50
79439;DHT22;68889;48.232;10.110;2023-04-25T12:24:22;8.60;82.70
79439;DHT22;68889;48.232;10.110;2023-04-25T12:27:01;8.40;82.40
79439;DHT22;68889;48.232;10.110;2023-04-25T12:29:28;8.40;81.50
79439;DHT22;68889;48.232;10.110;2023-04-25T12:31:55;8.40;85.20
79439;DHT22;68889;48.232;10.110;2023-04-25T12:34:21;8.40;84.80
79439;DHT22;68889;48.232;10.110;2023-04-25T12:36:47;8.40;81.60
79439;DHT22;68889;48.232;10.110;2023-04-25T12:39:21;8.40;84.60
79439;DHT22;68889;48.232;10.110;2023-04-25T12:41:48;8.40;85.30
79439;DHT22;68889;48.232;10.110;2023-04-25T12:44:14;8.40;82.80
79439;DHT22;68889;48.232;10.110;2023-04-25T12:46:40;8.30;85.30
79439;DHT22;68889;48.232;10.110;2023-04-25T12:49:07;8.20;85.70
79439;DHT22;68889;48.232;10.110;2023-04-25T12:51:34;8.20;85.70
79439;DHT22;68889;48.232;10.110;2023-04-25T12:54:00;8.00;85.70
79439;DHT22;68889;48.232;10.110;2023-04-25T12:56:27;7.90;85.90
79439;DHT22;68889;48.232;10.110;2023-04-25T12:58:53;7.90;86.00
79439;DHT22;68889;48.232;10.110;2023-04-25T13:01:19;7.90;86.00
79439;DHT22;68889;48.232;10.110;2023-04-25T13:03:45;7.90;86.80
79439;DHT22;68889;48.232;10.110;2023-04-25T13:06:10;7.90;86.30
79439;DHT22;68889;48.232;10.110;2023-04-25T13:08:36;7.90;88.10
79439;DHT22;68889;48.232;10.110;2023-04-25T13:11:03;8.00;89.40
79439;DHT22;68889;48.232;10.110;2023-04-25T13:13:29;8.10;87.50
79439;DHT22;68889;48.232;10.110;2023-04-25T13:15:57;8.20;88.10
79439;DHT22;68889;48.232;10.110;2023-04-25T13:18:23;8.10;88.40
79439;DHT22;68889;48.232;10.110;2023-04-25T13:20:52;8.10;87.00
79439;DHT22;68889;48.232;10.110;2023-04-25T13:23:18;8.10;86.60
79439;DHT22;68889;48.232;10.110;2023-04-25T13:25:44;8.00;87.00
79439;DHT22;68889;48.232;10.110;2023-04-25T13:28:10;7.90;87.00
79439;DHT22;68889;48.232;10.110;2023-04-25T13:30:36;8.00;87.60
79439;DHT22;68889;48.232;10.110;2023-04-25T13:33:02;7.90;87.70
79439;DHT22;68889;48.232;10.110;2023-04-25T13:35:29;7.90;86.30
79439;DHT22;68889;48.232;10.110;2023-04-25T13:37:55;8.10;88.40
79439;DHT22;68889;48.232;10.110;2023-04-25T13:40:21;8.30;89.70
79439;DHT22;68889;48.232;10.110;2023-04-25T13:42:47;8.80;90.30
79439;DHT22;68889;48.232;10.110;2023-04-25T13:45:12;8.80;86.60
79439;DHT22;68889;48.232;10.110;2023-04-25T13:47:38;8.90;85.70
79439;DHT22;68889;48.232;10.110;2023-04-25T13:50:04;9.00;84.40
79439;DHT22;68889;48.232;10.110;2023-04-25T13:52:33;9.00;86.90
79439;DHT22;68889;48.232;10.110;2023-04-25T13:54:59;9.10;84.20
79439;DHT22;68889;48.232;10.110;2023-04-25T13:57:24;9.40;85.00
79439;DHT22;68889;48.232;10.110;2023-04-25T13:59:50;9.90;89.20
79439;DHT22;68889;48.232;10.110;2023-04-25T14:02:16;10.70;87.80
79439;DHT22;68889;48.232;10.110;2023-04-25T14:04:42;11.40;84.80
79439;DHT22;68889;48.232;10.110;2023-04-25T14:07:07;11.80;82.10
79439;DHT22;68889;48.232;10.110;2023-04-25T14:09:34;11.70;78.00
79439;DHT22;68889;48.232;10.110;2023-04-25T14:11:59;11.40;78.30
79439;DHT22;68889;48.232;10.110;2023-04-25T14:14:25;11.00;77.10
79439;DHT22;68889;48.232;10.110;2023-04-25T14:16:51;10.60;78.40
79439;DHT22;68889;48.232;10.110;2023-04-25T14:19:19;10.40;76.50
79439;DHT22;68889;48.232;10.110;2023-04-25T14:21:45;10.30;78.50
79439;DHT22;68889;48.232;10.110;2023-04-25T14:24:12;10.20;79.40
79439;DHT22;68889;48.232;10.110;2023-04-25T14:26:38;10.30;80.20
79439;DHT22;68889;48.232;10.110;2023-04-25T14:29:05;10.40;81.60
79439;DHT22;68889;48.232;10.110;2023-04-25T14:31:31;10.40;80.60
79439;DHT22;68889;48.232;10.110;2023-04-25T14:33:57;10.30;77.30
79439;DHT22;68889;48.232;10.110;2023-04-25T14:36:22;10.40;77.90
79439;DHT22;68889;48.232;10.110;2023-04-25T14:38:48;10.40;78.80
79439;DHT22;68889;48.232;10.110;2023-04-25T14:41:13;10.40;77.20
79439;DHT22;68889;48.232;10.110;2023-04-25T14:43:39;10.40;75.90
79439;DHT22;68889;48.232;10.110;2023-04-25T14:46:10;10.40;77.30
79439;DHT22;68889;48.232;10.110;2023-04-25T14:48:36;10.50;75.90
79439;DHT22;68889;48.232;10.110;2023-04-25T14:51:01;10.50;77.70
79439;DHT22;68889;48.232;10.110;2023-04-25T14:53:27;10.50;74.90
79439;DHT22;68889;48.232;10.110;2023-04-25T14:55:53;10.50;76.00
79439;DHT22;68889;48.232;10.110;2023-04-25T14:58:19;10.80;74.80
79439;DHT22;68889;48.232;10.110;2023-04-25T15:00:45;10.80;76.40
79439;DHT22;68889;48.232;10.110;2023-04-25T15:03:11;10.70;73.60
79439;DHT22;68889;48.232;10.110;2023-04-25T15:05:38;10.50;75.60
79439;DHT22;68889;48.232;10.110;2023-04-25T15:08:04;10.50;76.50
79439;DHT22;68889;48.232;10.110;2023-04-25T15:10:30;10.60;76.90
79439;DHT22;68889;48.232;10.110;2023-04-25T15:12:55;10.60;76.00
79439;DHT22;68889;48.232;10.110;2023-04-25T15:15:21;10.60;75.30
79439;DHT22;68889;48.232;10.110;2023-04-25T15:17:47;10.70;77.00
79439;DHT22;68889;48.232;10.110;2023-04-25T15:20:13;10.60;74.80
79439;DHT22;68889;48.232;10.110;2023-04-25T15:22:41;10.60;74.30
79439;DHT22;68889;48.232;10.110;2023-04-25T15:25:08;10.50;74.50
79439;DHT22;68889;48.232;10.110;2023-04-25T15:27:38;10.30;72.90
79439;DHT22;68889;48.232;10.110;2023-04-25T15:30:07;10.30;73.90
79439;DHT22;68889;48.232;10.110;2023-04-25T15:32:34;10.40;75.00